sensor_id;sensor_type;location;lat;lon;timestamp;temperature;humidity
64855;DHT22;51321;50.428;8.378;2022-11-03T00:01:27;5.80;99.90
64855;DHT22;51321;50.428;8.378;2022-11-03T00:03:49;5.80;99.90
64855;DHT22;51321;50.428;8.378;2022-11-03T00:06:11;5.80;99.90
64855;DHT22;51321;50.428;8.378;2022-11-03T00:08:35;5.70;99.90
64855;DHT22;51321;50.428;8.378;2022-11-03T00:11:03;5.60;99.90
64855;DHT22;51321;50.428;8.378;2022-11-03T00:13:26;5.60;99.90
64855;DHT22;51321;50.428;8.378;2022-11-03T00:15:49;5.60;99.90
64855;DHT22;51321;50.428;8.378;2022-11-03T00:18:12;5.60;99.90
64855;DHT22;51321;50.428;8.378;2022-11-03T00:20:34;5.60;99.90
64855;DHT22;51321;50.428;8.378;2022-11-03T00:22:57;5.60;99.90
64855;DHT22;51321;50.428;8.378;2022-11-03T00:25:19;5.60;99.90
64855;DHT22;51321;50.428;8.378;2022-11-03T00:27:41;5.70;99.90
64855;DHT22;51321;50.428;8.378;2022-11-03T00:30:06;5.60;99.90
64855;DHT22;51321;50.428;8.378;2022-11-03T00:32:28;5.70;99.90
64855;DHT22;51321;50.428;8.378;2022-11-03T00:34:50;5.70;99.90
64855;DHT22;51321;50.428;8.378;2022-11-03T00:37:12;5.90;99.90
64855;DHT22;51321;50.428;8.378;2022-11-03T00:39:34;6.00;99.90
64855;DHT22;51321;50.428;8.378;2022-11-03T00:41:56;5.90;99.90
64855;DHT22;51321;50.428;8.378;2022-11-03T00:44:19;5.80;99.90
64855;DHT22;51321;50.428;8.378;2022-11-03T00:46:42;5.70;99.90
64855;DHT22;51321;50.428;8.378;2022-11-03T00:49:04;5.70;99.90
64855;DHT22;51321;50.428;8.378;2022-11-03T00:51:27;5.90;99.90
64855;DHT22;51321;50.428;8.378;2022-11-03T00:53:52;5.90;99.90
64855;DHT22;51321;50.428;8.378;2022-11-03T00:56:16;6.00;99.90
64855;DHT22;51321;50.428;8.378;2022-11-03T00:58:39;5.90;99.90
64855;DHT22;51321;50.428;8.378;2022-11-03T01:01:04;5.80;99.90
64855;DHT22;51321;50.428;8.378;2022-11-03T01:03:28;5.70;99.90
64855;DHT22;51321;50.428;8.378;2022-11-03T01:05:50;5.80;99.90
64855;DHT22;51321;50.428;8.378;2022-11-03T01:08:31;5.50;99.90
64855;DHT22;51321;50.428;8.378;2022-11-03T01:10:54;5.50;99.90
64855;DHT22;51321;50.428;8.378;2022-11-03T01:13:33;5.60;99.90
64855;DHT22;51321;50.428;8.378;2022-11-03T01:15:57;5.60;99.90
64855;DHT22;51321;50.428;8.378;2022-11-03T01:18:19;5.60;99.90
64855;DHT22;51321;50.428;8.378;2022-11-03T01:20:42;5.50;99.90
64855;DHT22;51321;50.428;8.378;2022-11-03T01:23:05;5.60;99.90
64855;DHT22;51321;50.428;8.378;2022-11-03T01:25:27;5.70;99.90
64855;DHT22;51321;50.428;8.378;2022-11-03T01:27:49;5.80;99.90
64855;DHT22;51321;50.428;8.378;2022-11-03T01:30:12;5.70;99.90
64855;DHT22;51321;50.428;8.378;2022-11-03T01:32:34;5.70;99.90
64855;DHT22;51321;50.428;8.378;2022-11-03T01:34:56;5.60;99.90
64855;DHT22;51321;50.428;8.378;2022-11-03T01:37:19;5.50;99.90
64855;DHT22;51321;50.428;8.378;2022-11-03T01:39:42;5.50;99.90
64855;DHT22;51321;50.428;8.378;2022-11-03T01:42:05;5.50;99.90
64855;DHT22;51321;50.428;8.378;2022-11-03T01:44:32;5.50;99.90
64855;DHT22;51321;50.428;8.378;2022-11-03T01:47:00;5.60;99.90
64855;DHT22;51321;50.428;8.378;2022-11-03T01:49:28;5.60;99.90
64855;DHT22;51321;50.428;8.378;2022-11-03T01:51:55;5.60;99.90
64855;DHT22;51321;50.428;8.378;2022-11-03T01:54:21;5.50;99.90
64855;DHT22;51321;50.428;8.378;2022-11-03T01:56:44;5.70;99.90
64855;DHT22;51321;50.428;8.378;2022-11-03T01:59:08;5.70;99.90
64855;DHT22;51321;50.428;8.378;2022-11-03T02:01:31;5.70;99.90
64855;DHT22;51321;50.428;8.378;2022-11-03T02:03:54;5.60;99.90
64855;DHT22;51321;50.428;8.378;2022-11-03T02:06:18;5.60;99.90
64855;DHT22;51321;50.428;8.378;2022-11-03T02:08:46;5.60;99.90
64855;DHT22;51321;50.428;8.378;2022-11-03T02:11:11;5.70;99.90
64855;DHT22;51321;50.428;8.378;2022-11-03T02:13:47;5.70;99.90
64855;DHT22;51321;50.428;8.378;2022-11-03T02:16:10;5.70;99.90
64855;DHT22;51321;50.428;8.378;2022-11-03T02:18:33;5.70;99.90
64855;DHT22;51321;50.428;8.378;2022-11-03T02:21:01;5.60;99.90
64855;DHT22;51321;50.428;8.378;2022-11-03T02:23:30;5.60;99.90
64855;DHT22;51321;50.428;8.378;2022-11-03T02:25:58;5.70;99.90
64855;DHT22;51321;50.428;8.378;2022-11-03T02:28:21;5.70;99.90
64855;DHT22;51321;50.428;8.378;2022-11-03T02:30:48;5.70;99.90
64855;DHT22;51321;50.428;8.378;2022-11-03T02:33:23;5.70;99.90
64855;DHT22;51321;50.428;8.378;2022-11-03T02:35:52;5.60;99.90
64855;DHT22;51321;50.428;8.378;2022-11-03T02:38:16;5.60;99.90
64855;DHT22;51321;50.428;8.378;2022-11-03T02:40:44;5.60;99.90
64855;DHT22;51321;50.428;8.378;2022-11-03T02:43:09;5.60;99.90
64855;DHT22;51321;50.428;8.378;2022-11-03T02:45:31;5.60;99.90
64855;DHT22;51321;50.428;8.378;2022-11-03T02:47:57;5.60;99.90
64855;DHT22;51321;50.428;8.378;2022-11-03T02:50:20;5.50;99.90
64855;DHT22;51321;50.428;8.378;2022-11-03T02:52:47;5.50;99.90
64855;DHT22;51321;50.428;8.378;2022-11-03T02:55:22;5.50;99.90
64855;DHT22;51321;50.428;8.378;2022-11-03T02:57:52;5.50;99.90
64855;DHT22;51321;50.428;8.378;2022-11-03T03:00:18;5.40;99.90
64855;DHT22;51321;50.428;8.378;2022-11-03T03:02:47;5.40;99.90
64855;DHT22;51321;50.428;8.378;2022-11-03T03:05:13;5.40;99.90
64855;DHT22;51321;50.428;8.378;2022-11-03T03:07:42;5.40;99.90
64855;DHT22;51321;50.428;8.378;2022-11-03T03:10:09;5.40;99.90
64855;DHT22;51321;50.428;8.378;2022-11-03T03:12:34;5.30;99.90
64855;DHT22;51321;50.428;8.378;2022-11-03T03:14:58;5.20;99.90
64855;DHT22;51321;50.428;8.378;2022-11-03T03:17:24;5.20;99.90
64855;DHT22;51321;50.428;8.378;2022-11-03T03:19:51;5.40;99.90
64855;DHT22;51321;50.428;8.378;2022-11-03T03:22:21;5.40;99.90
64855;DHT22;51321;50.428;8.378;2022-11-03T03:24:49;5.30;99.90
64855;DHT22;51321;50.428;8.378;2022-11-03T03:27:13;5.40;99.90
64855;DHT22;51321;50.428;8.378;2022-11-03T03:29:41;5.30;99.90
64855;DHT22;51321;50.428;8.378;2022-11-03T03:32:08;5.20;99.90
64855;DHT22;51321;50.428;8.378;2022-11-03T03:34:33;5.20;99.90
64855;DHT22;51321;50.428;8.378;2022-11-03T03:36:59;5.30;99.90
64855;DHT22;51321;50.428;8.378;2022-11-03T03:39:24;5.30;99.90
64855;DHT22;51321;50.428;8.378;2022-11-03T03:41:47;5.30;99.90
64855;DHT22;51321;50.428;8.378;2022-11-03T03:44:11;5.30;99.90
64855;DHT22;51321;50.428;8.378;2022-11-03T03:46:37;5.30;99.90
64855;DHT22;51321;50.428;8.378;2022-11-03T03:49:05;5.30;99.90
64855;DHT22;51321;50.428;8.378;2022-11-03T03:51:30;5.30;99.90
64855;DHT22;51321;50.428;8.378;2022-11-03T03:53:53;5.20;99.90
64855;DHT22;51321;50.428;8.378;2022-11-03T03:56:15;5.20;99.90
64855;DHT22;51321;50.428;8.378;2022-11-03T03:58:38;5.20;99.90
64855;DHT22;51321;50.428;8.378;2022-11-03T04:01:00;5.10;99.90
64855;DHT22;51321;50.428;8.378;2022-11-03T04:03:24;5.10;99.90
64855;DHT22;51321;50.428;8.378;2022-11-03T04:05:46;5.20;99.90
64855;DHT22;51321;50.428;8.378;2022-11-03T04:08:10;5.20;99.90
64855;DHT22;51321;50.428;8.378;2022-11-03T04:10:32;5.20;99.90
64855;DHT22;51321;50.428;8.378;2022-11-03T04:12:54;5.30;99.90
64855;DHT22;51321;50.428;8.378;2022-11-03T04:15:34;5.30;99.90
64855;DHT22;51321;50.428;8.378;2022-11-03T04:18:14;5.30;99.90
64855;DHT22;51321;50.428;8.378;2022-11-03T04:20:53;5.40;99.90
64855;DHT22;51321;50.428;8.378;2022-11-03T04:23:34;5.40;99.90
64855;DHT22;51321;50.428;8.378;2022-11-03T04:25:56;5.40;99.90
64855;DHT22;51321;50.428;8.378;2022-11-03T04:28:20;5.40;99.90
64855;DHT22;51321;50.428;8.378;2022-11-03T04:30:42;5.40;99.90
64855;DHT22;51321;50.428;8.378;2022-11-03T04:33:04;5.40;99.90
64855;DHT22;51321;50.428;8.378;2022-11-03T04:35:33;5.30;99.90
64855;DHT22;51321;50.428;8.378;2022-11-03T04:37:59;5.20;99.90
64855;DHT22;51321;50.428;8.378;2022-11-03T04:40:24;5.20;99.90
64855;DHT22;51321;50.428;8.378;2022-11-03T04:42:46;5.20;99.90
64855;DHT22;51321;50.428;8.378;2022-11-03T04:45:16;5.30;99.90
64855;DHT22;51321;50.428;8.378;2022-11-03T04:47:40;5.40;99.90
64855;DHT22;51321;50.428;8.378;2022-11-03T04:50:05;5.30;99.90
64855;DHT22;51321;50.428;8.378;2022-11-03T04:52:34;5.20;99.90
64855;DHT22;51321;50.428;8.378;2022-11-03T04:54:56;5.10;99.90
64855;DHT22;51321;50.428;8.378;2022-11-03T04:57:20;4.90;99.90
64855;DHT22;51321;50.428;8.378;2022-11-03T04:59:44;4.80;99.90
64855;DHT22;51321;50.428;8.378;2022-11-03T05:02:10;4.80;99.90
64855;DHT22;51321;50.428;8.378;2022-11-03T05:04:33;4.80;99.90
64855;DHT22;51321;50.428;8.378;2022-11-03T05:06:55;4.70;99.90
64855;DHT22;51321;50.428;8.378;2022-11-03T05:09:22;4.70;99.90
64855;DHT22;51321;50.428;8.378;2022-11-03T05:11:45;4.70;99.90
64855;DHT22;51321;50.428;8.378;2022-11-03T05:14:14;4.90;99.90
64855;DHT22;51321;50.428;8.378;2022-11-03T05:16:36;4.90;99.90
64855;DHT22;51321;50.428;8.378;2022-11-03T05:18:59;4.70;99.90
64855;DHT22;51321;50.428;8.378;2022-11-03T05:21:23;4.90;99.90
64855;DHT22;51321;50.428;8.378;2022-11-03T05:23:47;4.90;99.90
64855;DHT22;51321;50.428;8.378;2022-11-03T05:26:13;4.80;99.90
64855;DHT22;51321;50.428;8.378;2022-11-03T05:28:38;4.80;99.90
64855;DHT22;51321;50.428;8.378;2022-11-03T05:31:17;5.00;99.90
64855;DHT22;51321;50.428;8.378;2022-11-03T05:33:41;5.00;99.90
64855;DHT22;51321;50.428;8.378;2022-11-03T05:36:10;5.00;99.90
64855;DHT22;51321;50.428;8.378;2022-11-03T05:38:33;4.90;99.90
64855;DHT22;51321;50.428;8.378;2022-11-03T05:40:56;4.70;99.90
64855;DHT22;51321;50.428;8.378;2022-11-03T05:43:19;4.70;99.90
64855;DHT22;51321;50.428;8.378;2022-11-03T05:45:42;4.70;99.90
64855;DHT22;51321;50.428;8.378;2022-11-03T05:48:13;4.70;99.90
64855;DHT22;51321;50.428;8.378;2022-11-03T05:50:39;4.70;99.90
64855;DHT22;51321;50.428;8.378;2022-11-03T05:53:25;4.70;99.90
64855;DHT22;51321;50.428;8.378;2022-11-03T05:55:47;4.80;99.90
64855;DHT22;51321;50.428;8.378;2022-11-03T05:58:18;4.80;99.90
64855;DHT22;51321;50.428;8.378;2022-11-03T06:00:43;4.80;99.90
64855;DHT22;51321;50.428;8.378;2022-11-03T06:03:06;4.80;99.90
64855;DHT22;51321;50.428;8.378;2022-11-03T06:05:30;4.80;99.90
64855;DHT22;51321;50.428;8.378;2022-11-03T06:07:54;4.70;99.90
64855;DHT22;51321;50.428;8.378;2022-11-03T06:10:23;4.60;99.90
64855;DHT22;51321;50.428;8.378;2022-11-03T06:12:45;4.60;99.90
64855;DHT22;51321;50.428;8.378;2022-11-03T06:15:18;4.60;99.90
64855;DHT22;51321;50.428;8.378;2022-11-03T06:17:43;4.60;99.90
64855;DHT22;51321;50.428;8.378;2022-11-03T06:20:15;4.70;99.90
64855;DHT22;51321;50.428;8.378;2022-11-03T06:22:39;4.70;99.90
64855;DHT22;51321;50.428;8.378;2022-11-03T06:25:21;4.50;99.90
64855;DHT22;51321;50.428;8.378;2022-11-03T06:27:44;4.40;99.90
64855;DHT22;51321;50.428;8.378;2022-11-03T06:30:20;4.60;99.90
64855;DHT22;51321;50.428;8.378;2022-11-03T06:32:44;4.80;99.90
64855;DHT22;51321;50.428;8.378;2022-11-03T06:35:09;4.90;99.90
64855;DHT22;51321;50.428;8.378;2022-11-03T06:37:33;4.90;99.90
64855;DHT22;51321;50.428;8.378;2022-11-03T06:39:58;4.70;99.90
64855;DHT22;51321;50.428;8.378;2022-11-03T06:42:21;4.70;99.90
64855;DHT22;51321;50.428;8.378;2022-11-03T06:44:44;4.70;99.90
64855;DHT22;51321;50.428;8.378;2022-11-03T06:47:20;4.50;99.90
64855;DHT22;51321;50.428;8.378;2022-11-03T06:49:43;4.60;99.90
64855;DHT22;51321;50.428;8.378;2022-11-03T06:52:19;4.70;99.90
64855;DHT22;51321;50.428;8.378;2022-11-03T06:54:46;4.90;99.90
64855;DHT22;51321;50.428;8.378;2022-11-03T06:57:10;4.90;99.90
64855;DHT22;51321;50.428;8.378;2022-11-03T06:59:33;4.80;99.90
64855;DHT22;51321;50.428;8.378;2022-11-03T07:01:55;4.90;99.90
64855;DHT22;51321;50.428;8.378;2022-11-03T07:04:18;4.80;99.90
64855;DHT22;51321;50.428;8.378;2022-11-03T07:06:41;4.80;99.90
64855;DHT22;51321;50.428;8.378;2022-11-03T07:09:06;4.80;99.90
64855;DHT22;51321;50.428;8.378;2022-11-03T07:11:43;4.90;99.90
64855;DHT22;51321;50.428;8.378;2022-11-03T07:14:10;5.10;99.90
64855;DHT22;51321;50.428;8.378;2022-11-03T07:16:36;5.10;99.90
64855;DHT22;51321;50.428;8.378;2022-11-03T07:18:59;5.20;99.90
64855;DHT22;51321;50.428;8.378;2022-11-03T07:21:33;5.10;99.90
64855;DHT22;51321;50.428;8.378;2022-11-03T07:23:56;5.10;99.90
64855;DHT22;51321;50.428;8.378;2022-11-03T07:26:20;5.20;99.90
64855;DHT22;51321;50.428;8.378;2022-11-03T07:28:42;5.40;99.90
64855;DHT22;51321;50.428;8.378;2022-11-03T07:31:13;5.50;99.90
64855;DHT22;51321;50.428;8.378;2022-11-03T07:33:36;5.50;99.90
64855;DHT22;51321;50.428;8.378;2022-11-03T07:35:58;5.50;99.90
64855;DHT22;51321;50.428;8.378;2022-11-03T07:38:21;5.50;99.90
64855;DHT22;51321;50.428;8.378;2022-11-03T07:40:43;5.60;99.90
64855;DHT22;51321;50.428;8.378;2022-11-03T07:43:14;5.80;99.90
64855;DHT22;51321;50.428;8.378;2022-11-03T07:45:39;6.00;99.90
64855;DHT22;51321;50.428;8.378;2022-11-03T07:48:10;6.20;99.90
64855;DHT22;51321;50.428;8.378;2022-11-03T07:50:35;6.30;99.90
64855;DHT22;51321;50.428;8.378;2022-11-03T07:52:58;6.50;99.90
64855;DHT22;51321;50.428;8.378;2022-11-03T07:55:21;6.60;99.90
64855;DHT22;51321;50.428;8.378;2022-11-03T07:57:43;6.80;99.90
64855;DHT22;51321;50.428;8.378;2022-11-03T08:00:08;6.80;99.90
64855;DHT22;51321;50.428;8.378;2022-11-03T08:02:45;6.80;99.90
64855;DHT22;51321;50.428;8.378;2022-11-03T08:05:09;6.70;99.90
64855;DHT22;51321;50.428;8.378;2022-11-03T08:07:31;6.70;99.90
64855;DHT22;51321;50.428;8.378;2022-11-03T08:09:53;6.80;99.90
64855;DHT22;51321;50.428;8.378;2022-11-03T08:12:15;6.90;99.90
64855;DHT22;51321;50.428;8.378;2022-11-03T08:14:37;7.00;99.90
64855;DHT22;51321;50.428;8.378;2022-11-03T08:17:00;7.00;99.90
64855;DHT22;51321;50.428;8.378;2022-11-03T08:19:23;7.10;99.90
64855;DHT22;51321;50.428;8.378;2022-11-03T08:21:45;7.10;99.90
64855;DHT22;51321;50.428;8.378;2022-11-03T08:24:07;7.00;99.90
64855;DHT22;51321;50.428;8.378;2022-11-03T08:26:29;6.90;99.90
64855;DHT22;51321;50.428;8.378;2022-11-03T08:28:52;6.90;99.90
64855;DHT22;51321;50.428;8.378;2022-11-03T08:31:14;6.90;99.90
64855;DHT22;51321;50.428;8.378;2022-11-03T08:33:37;6.90;99.90
64855;DHT22;51321;50.428;8.378;2022-11-03T08:36:00;7.00;99.90
64855;DHT22;51321;50.428;8.378;2022-11-03T08:38:23;7.30;99.90
64855;DHT22;51321;50.428;8.378;2022-11-03T08:40:45;7.60;99.90
64855;DHT22;51321;50.428;8.378;2022-11-03T08:43:07;7.80;99.90
64855;DHT22;51321;50.428;8.378;2022-11-03T08:45:29;7.90;99.90
64855;DHT22;51321;50.428;8.378;2022-11-03T08:47:51;8.00;99.90
64855;DHT22;51321;50.428;8.378;2022-11-03T08:50:14;8.10;99.90
64855;DHT22;51321;50.428;8.378;2022-11-03T08:52:36;8.40;99.90
64855;DHT22;51321;50.428;8.378;2022-11-03T08:54:59;8.40;99.90
64855;DHT22;51321;50.428;8.378;2022-11-03T08:57:21;8.60;99.90
64855;DHT22;51321;50.428;8.378;2022-11-03T08:59:43;8.70;99.90
64855;DHT22;51321;50.428;8.378;2022-11-03T09:02:05;8.90;99.90
64855;DHT22;51321;50.428;8.378;2022-11-03T09:04:27;9.10;99.90
64855;DHT22;51321;50.428;8.378;2022-11-03T09:06:51;9.30;99.90
64855;DHT22;51321;50.428;8.378;2022-11-03T09:09:12;9.40;99.90
64855;DHT22;51321;50.428;8.378;2022-11-03T09:11:35;9.60;99.90
64855;DHT22;51321;50.428;8.378;2022-11-03T09:13:58;9.80;99.90
64855;DHT22;51321;50.428;8.378;2022-11-03T09:16:20;10.00;99.90
64855;DHT22;51321;50.428;8.378;2022-11-03T09:18:42;10.20;99.90
64855;DHT22;51321;50.428;8.378;2022-11-03T09:21:05;10.40;99.90
64855;DHT22;51321;50.428;8.378;2022-11-03T09:23:29;10.50;99.90
64855;DHT22;51321;50.428;8.378;2022-11-03T09:25:52;10.60;99.90
64855;DHT22;51321;50.428;8.378;2022-11-03T09:28:14;10.60;99.90
64855;DHT22;51321;50.428;8.378;2022-11-03T09:30:37;10.50;99.90
64855;DHT22;51321;50.428;8.378;2022-11-03T09:32:59;10.60;99.90
64855;DHT22;51321;50.428;8.378;2022-11-03T09:35:22;10.70;99.90
64855;DHT22;51321;50.428;8.378;2022-11-03T09:37:44;10.80;99.90
64855;DHT22;51321;50.428;8.378;2022-11-03T09:40:09;10.80;99.90
64855;DHT22;51321;50.428;8.378;2022-11-03T09:42:33;10.80;99.90
64855;DHT22;51321;50.428;8.378;2022-11-03T09:44:55;10.70;99.90
64855;DHT22;51321;50.428;8.378;2022-11-03T09:47:21;10.80;99.90
64855;DHT22;51321;50.428;8.378;2022-11-03T09:49:43;10.80;99.90
64855;DHT22;51321;50.428;8.378;2022-11-03T09:52:06;10.90;99.90
64855;DHT22;51321;50.428;8.378;2022-11-03T09:54:28;11.00;99.90
64855;DHT22;51321;50.428;8.378;2022-11-03T09:56:52;11.10;99.90
64855;DHT22;51321;50.428;8.378;2022-11-03T09:59:15;11.10;99.90
64855;DHT22;51321;50.428;8.378;2022-11-03T10:01:37;11.20;99.90
64855;DHT22;51321;50.428;8.378;2022-11-03T10:04:00;11.40;99.90
64855;DHT22;51321;50.428;8.378;2022-11-03T10:06:22;11.50;99.90
64855;DHT22;51321;50.428;8.378;2022-11-03T10:08:46;11.80;99.90
64855;DHT22;51321;50.428;8.378;2022-11-03T10:11:08;12.10;99.90
64855;DHT22;51321;50.428;8.378;2022-11-03T10:13:33;12.20;99.90
64855;DHT22;51321;50.428;8.378;2022-11-03T10:15:56;12.40;99.90
64855;DHT22;51321;50.428;8.378;2022-11-03T10:18:21;12.50;99.90
64855;DHT22;51321;50.428;8.378;2022-11-03T10:20:43;12.40;99.90
64855;DHT22;51321;50.428;8.378;2022-11-03T10:23:07;12.40;99.90
64855;DHT22;51321;50.428;8.378;2022-11-03T10:25:33;12.20;99.90
64855;DHT22;51321;50.428;8.378;2022-11-03T10:28:17;12.20;99.90
64855;DHT22;51321;50.428;8.378;2022-11-03T10:30:53;12.10;99.90
64855;DHT22;51321;50.428;8.378;2022-11-03T10:33:25;12.20;99.90
64855;DHT22;51321;50.428;8.378;2022-11-03T10:35:47;12.20;99.90
64855;DHT22;51321;50.428;8.378;2022-11-03T10:38:23;12.20;99.90
64855;DHT22;51321;50.428;8.378;2022-11-03T10:40:47;12.30;99.90
64855;DHT22;51321;50.428;8.378;2022-11-03T10:43:10;12.50;99.90
64855;DHT22;51321;50.428;8.378;2022-11-03T10:45:32;12.50;99.90
64855;DHT22;51321;50.428;8.378;2022-11-03T10:48:01;12.60;99.90
64855;DHT22;51321;50.428;8.378;2022-11-03T10:50:26;12.80;99.90
64855;DHT22;51321;50.428;8.378;2022-11-03T10:52:48;12.90;99.90
64855;DHT22;51321;50.428;8.378;2022-11-03T10:55:11;12.90;99.90
64855;DHT22;51321;50.428;8.378;2022-11-03T10:57:33;12.90;99.90
64855;DHT22;51321;50.428;8.378;2022-11-03T10:59:55;13.00;99.90
64855;DHT22;51321;50.428;8.378;2022-11-03T11:02:19;13.10;99.90
64855;DHT22;51321;50.428;8.378;2022-11-03T11:04:45;13.10;99.90
64855;DHT22;51321;50.428;8.378;2022-11-03T11:07:16;13.10;99.90
64855;DHT22;51321;50.428;8.378;2022-11-03T11:09:40;13.20;99.90
64855;DHT22;51321;50.428;8.378;2022-11-03T11:12:04;13.30;99.90
64855;DHT22;51321;50.428;8.378;2022-11-03T11:14:37;13.30;99.90
64855;DHT22;51321;50.428;8.378;2022-11-03T11:17:39;13.30;99.90
64855;DHT22;51321;50.428;8.378;2022-11-03T11:20:38;13.30;99.90
64855;DHT22;51321;50.428;8.378;2022-11-03T11:26:39;13.30;99.90
64855;DHT22;51321;50.428;8.378;2022-11-03T11:35:16;13.40;99.90
64855;DHT22;51321;50.428;8.378;2022-11-03T11:37:40;13.40;99.90
64855;DHT22;51321;50.428;8.378;2022-11-03T11:40:10;13.40;99.90
64855;DHT22;51321;50.428;8.378;2022-11-03T11:42:32;13.40;99.90
64855;DHT22;51321;50.428;8.378;2022-11-03T11:44:56;13.40;99.90
64855;DHT22;51321;50.428;8.378;2022-11-03T11:47:30;13.40;99.90
64855;DHT22;51321;50.428;8.378;2022-11-03T11:52:56;13.40;99.90
64855;DHT22;51321;50.428;8.378;2022-11-03T11:55:27;13.40;99.90
64855;DHT22;51321;50.428;8.378;2022-11-03T11:57:51;13.40;99.90
64855;DHT22;51321;50.428;8.378;2022-11-03T12:00:19;13.40;99.90
64855;DHT22;51321;50.428;8.378;2022-11-03T12:02:45;13.40;99.90
64855;DHT22;51321;50.428;8.378;2022-11-03T12:05:18;13.40;99.90
64855;DHT22;51321;50.428;8.378;2022-11-03T12:07:40;13.30;99.90
64855;DHT22;51321;50.428;8.378;2022-11-03T12:10:08;13.30;99.90
64855;DHT22;51321;50.428;8.378;2022-11-03T12:12:33;13.30;99.90
64855;DHT22;51321;50.428;8.378;2022-11-03T12:14:55;13.20;99.90
64855;DHT22;51321;50.428;8.378;2022-11-03T12:17:32;13.20;99.90
64855;DHT22;51321;50.428;8.378;2022-11-03T12:19:55;13.10;99.90
64855;DHT22;51321;50.428;8.378;2022-11-03T12:22:38;13.10;99.90
64855;DHT22;51321;50.428;8.378;2022-11-03T12:25:01;13.10;99.90
64855;DHT22;51321;50.428;8.378;2022-11-03T12:27:41;13.10;99.90
64855;DHT22;51321;50.428;8.378;2022-11-03T12:30:05;13.20;99.90
64855;DHT22;51321;50.428;8.378;2022-11-03T12:32:32;13.20;99.90
64855;DHT22;51321;50.428;8.378;2022-11-03T12:34:54;13.20;99.90
64855;DHT22;51321;50.428;8.378;2022-11-03T12:37:16;13.20;99.90
64855;DHT22;51321;50.428;8.378;2022-11-03T12:39:38;13.10;99.90
64855;DHT22;51321;50.428;8.378;2022-11-03T12:42:00;13.10;99.90
64855;DHT22;51321;50.428;8.378;2022-11-03T12:44:24;13.10;99.90
64855;DHT22;51321;50.428;8.378;2022-11-03T12:46:46;13.10;99.90
64855;DHT22;51321;50.428;8.378;2022-11-03T12:49:08;13.00;99.90
64855;DHT22;51321;50.428;8.378;2022-11-03T12:51:31;13.10;99.90
64855;DHT22;51321;50.428;8.378;2022-11-03T12:53:53;13.10;99.90
64855;DHT22;51321;50.428;8.378;2022-11-03T12:56:16;13.10;99.90
64855;DHT22;51321;50.428;8.378;2022-11-03T12:58:38;13.10;99.90
64855;DHT22;51321;50.428;8.378;2022-11-03T13:01:02;13.00;99.90
64855;DHT22;51321;50.428;8.378;2022-11-03T13:03:24;13.00;99.90
64855;DHT22;51321;50.428;8.378;2022-11-03T13:05:46;13.00;99.90
64855;DHT22;51321;50.428;8.378;2022-11-03T13:08:08;13.00;99.90
64855;DHT22;51321;50.428;8.378;2022-11-03T13:10:30;13.00;99.90
64855;DHT22;51321;50.428;8.378;2022-11-03T13:12:52;13.00;99.90
64855;DHT22;51321;50.428;8.378;2022-11-03T13:15:14;13.10;99.90
64855;DHT22;51321;50.428;8.378;2022-11-03T13:17:38;13.10;99.90
64855;DHT22;51321;50.428;8.378;2022-11-03T13:20:00;13.10;99.90
64855;DHT22;51321;50.428;8.378;2022-11-03T13:22:22;13.20;99.90
64855;DHT22;51321;50.428;8.378;2022-11-03T13:24:44;13.20;99.90
64855;DHT22;51321;50.428;8.378;2022-11-03T13:27:06;13.20;99.90
64855;DHT22;51321;50.428;8.378;2022-11-03T13:29:28;13.20;99.90
64855;DHT22;51321;50.428;8.378;2022-11-03T13:31:50;13.10;99.90
64855;DHT22;51321;50.428;8.378;2022-11-03T13:34:15;13.00;99.90
64855;DHT22;51321;50.428;8.378;2022-11-03T13:36:37;13.00;99.90
64855;DHT22;51321;50.428;8.378;2022-11-03T13:42:48;12.90;99.90
64855;DHT22;51321;50.428;8.378;2022-11-03T13:45:10;12.90;99.90
64855;DHT22;51321;50.428;8.378;2022-11-03T13:47:32;12.90;99.90
64855;DHT22;51321;50.428;8.378;2022-11-03T13:49:56;12.80;99.90
64855;DHT22;51321;50.428;8.378;2022-11-03T13:52:20;12.70;99.90
64855;DHT22;51321;50.428;8.378;2022-11-03T13:54:44;12.60;99.90
64855;DHT22;51321;50.428;8.378;2022-11-03T13:57:06;12.60;99.90
64855;DHT22;51321;50.428;8.378;2022-11-03T13:59:28;12.50;99.90
64855;DHT22;51321;50.428;8.378;2022-11-03T14:01:51;12.40;99.90
64855;DHT22;51321;50.428;8.378;2022-11-03T14:04:13;12.30;99.90
64855;DHT22;51321;50.428;8.378;2022-11-03T14:06:36;12.30;99.90
64855;DHT22;51321;50.428;8.378;2022-11-03T14:09:12;12.30;99.90
64855;DHT22;51321;50.428;8.378;2022-11-03T14:11:36;12.20;99.90
64855;DHT22;51321;50.428;8.378;2022-11-03T14:14:17;12.20;99.90
64855;DHT22;51321;50.428;8.378;2022-11-03T14:16:50;12.20;99.90
64855;DHT22;51321;50.428;8.378;2022-11-03T14:19:12;12.10;99.90
64855;DHT22;51321;50.428;8.378;2022-11-03T14:21:36;12.20;99.90
64855;DHT22;51321;50.428;8.378;2022-11-03T14:24:17;12.10;99.90
64855;DHT22;51321;50.428;8.378;2022-11-03T14:26:40;12.10;99.90
64855;DHT22;51321;50.428;8.378;2022-11-03T14:29:06;12.00;99.90
64855;DHT22;51321;50.428;8.378;2022-11-03T14:31:29;12.10;99.90
64855;DHT22;51321;50.428;8.378;2022-11-03T14:33:52;12.00;99.90
64855;DHT22;51321;50.428;8.378;2022-11-03T14:36:15;11.90;99.90
64855;DHT22;51321;50.428;8.378;2022-11-03T14:38:39;11.90;99.90
64855;DHT22;51321;50.428;8.378;2022-11-03T14:41:01;11.90;99.90
64855;DHT22;51321;50.428;8.378;2022-11-03T14:44:13;11.90;99.90
64855;DHT22;51321;50.428;8.378;2022-11-03T14:46:35;11.90;99.90
64855;DHT22;51321;50.428;8.378;2022-11-03T14:48:57;11.90;99.90
64855;DHT22;51321;50.428;8.378;2022-11-03T14:51:20;11.90;99.90
64855;DHT22;51321;50.428;8.378;2022-11-03T14:53:44;11.80;99.90
64855;DHT22;51321;50.428;8.378;2022-11-03T14:56:06;11.80;99.90
64855;DHT22;51321;50.428;8.378;2022-11-03T14:58:29;11.80;99.90
64855;DHT22;51321;50.428;8.378;2022-11-03T15:00:51;11.90;99.90
64855;DHT22;51321;50.428;8.378;2022-11-03T15:03:13;11.80;99.90
64855;DHT22;51321;50.428;8.378;2022-11-03T15:05:35;11.90;99.90
64855;DHT22;51321;50.428;8.378;2022-11-03T15:08:06;12.00;99.90
64855;DHT22;51321;50.428;8.378;2022-11-03T15:10:30;11.90;99.90
64855;DHT22;51321;50.428;8.378;2022-11-03T15:12:52;11.80;99.90
64855;DHT22;51321;50.428;8.378;2022-11-03T15:15:14;11.80;99.90
64855;DHT22;51321;50.428;8.378;2022-11-03T15:17:36;11.80;99.90
64855;DHT22;51321;50.428;8.378;2022-11-03T15:19:58;11.80;99.90
64855;DHT22;51321;50.428;8.378;2022-11-03T15:22:21;11.80;99.90
64855;DHT22;51321;50.428;8.378;2022-11-03T15:24:43;11.90;99.90
64855;DHT22;51321;50.428;8.378;2022-11-03T15:27:06;11.90;99.90
64855;DHT22;51321;50.428;8.378;2022-11-03T15:29:29;12.00;99.90
64855;DHT22;51321;50.428;8.378;2022-11-03T15:31:51;11.90;99.90
64855;DHT22;51321;50.428;8.378;2022-11-03T15:34:13;11.80;99.90
64855;DHT22;51321;50.428;8.378;2022-11-03T15:36:35;11.70;99.90
64855;DHT22;51321;50.428;8.378;2022-11-03T15:38:58;11.70;99.90
64855;DHT22;51321;50.428;8.378;2022-11-03T15:41:20;11.60;99.90
64855;DHT22;51321;50.428;8.378;2022-11-03T15:43:44;11.50;99.90